Terminal Aerodrome Forecast
Issued by NWS

Home | Current Version | Previous Version | Graphics & Text | Print | Product List | Glossary On
Versions: 1 2 3 4 5 6 7 8 9 10 11 12 13 14
631
FTUS43 KIWX 190526
TAFSBN
TAF
KSBN 190526Z 1906/2006 00000KT P6SM VCSH SCT070
     FM191000 VRB02KT P6SM SCT150
     FM191600 31007KT P6SM SCT045=

USA.gov is the U.S. government's official web portal to all federal, state and local government web resources and services.